Time;durP1;ratioP1;P1;durP2;ratioP2;P2;SDS_P1;SDS_P2;PMS_P1;PMS_P2;Temp;Humidity;BMP_temperature;BMP_pressure;BME280_temperature;BME280_humidity;BME280_pressure;Samples;Min_cycle;Max_cycle;Signal;HPM_P1;HPM_P2
2022/04/21 00:01:07;;;;;;;34.63;28.33;;;;;;;-144.47;100.00;61586.06;6156254;23;20008;-79
2022/04/21 00:03:32;;;;;;;35.97;28.60;;;;;;;-144.47;100.00;61586.06;6182719;23;20016;-80
2022/04/21 00:05:58;;;;;;;37.45;29.02;;;;;;;-144.47;100.00;61586.06;6182467;23;20021;-79
2022/04/21 00:08:24;;;;;;;33.80;29.17;;;;;;;-144.47;100.00;61586.06;6182574;23;20006;-80
2022/04/21 00:10:50;;;;;;;33.50;27.95;;;;;;;-144.47;100.00;61586.06;6182947;23;20510;-80
2022/04/21 00:13:15;;;;;;;34.72;28.98;;;;;;;-144.47;100.00;61586.06;6182377;23;20036;-80
2022/04/21 00:15:40;;;;;;;42.40;28.73;;;;;;;-144.47;100.00;61586.06;6182776;23;20079;-78
2022/04/21 00:18:06;;;;;;;38.42;28.42;;;;;;;-144.47;100.00;61586.06;6156904;23;20334;-79
2022/04/21 00:20:34;;;;;;;33.33;27.02;;;;;;;-144.47;100.00;61586.06;6132005;23;20013;-80
2022/04/21 00:25:43;;;;;;;37.22;28.15;;;;;;;-144.47;100.00;61586.06;6183257;23;20009;-79
2022/04/21 00:28:08;;;;;;;36.42;27.15;;;;;;;-144.47;100.00;61586.06;6182882;23;20076;-79
2022/04/21 00:30:34;;;;;;;35.65;26.58;;;;;;;-144.47;100.00;61586.06;6182950;23;20079;-79
2022/04/21 00:33:00;;;;;;;32.13;26.88;;;;;;;-144.47;100.00;61586.06;6183155;23;20013;-79
2022/04/21 00:35:25;;;;;;;34.47;26.63;;;;;;;-144.47;100.00;61586.06;6155985;23;20027;-79
2022/04/21 00:37:56;;;;;;;34.30;27.88;;;;;;;-144.47;100.00;61586.06;6183356;23;20107;-78
2022/04/21 00:40:27;;;;;;;34.92;28.10;;;;;;;-144.47;100.00;61586.06;6186076;23;20009;-79
2022/04/21 00:42:53;;;;;;;35.20;28.33;;;;;;;-144.47;100.00;61586.06;6163728;23;20095;-78
2022/04/21 00:45:19;;;;;;;36.67;27.17;;;;;;;-144.47;100.00;61586.06;6190840;23;20017;-78
2022/04/21 00:47:46;;;;;;;34.42;28.38;;;;;;;-144.47;100.00;61586.06;6192185;23;20013;-78
2022/04/21 00:50:24;;;;;;;39.20;27.92;;;;;;;-144.47;100.00;61586.06;6133744;23;20009;-79
2022/04/21 00:52:52;;;;;;;34.22;27.40;;;;;;;-144.47;100.00;61586.06;6131906;23;20028;-80
2022/04/21 00:55:19;;;;;;;34.63;27.90;;;;;;;-144.47;100.00;61586.06;6156297;23;20442;-80
2022/04/21 00:57:46;;;;;;;32.40;27.38;;;;;;;-144.47;100.00;61586.06;6180728;23;20550;-78
2022/04/21 01:00:13;;;;;;;36.80;28.05;;;;;;;-144.47;100.00;61586.06;6181802;23;20307;-80
2022/04/21 01:02:54;;;;;;;35.28;28.23;;;;;;;-144.47;100.00;61586.06;6181710;23;20025;-78
2022/04/21 01:05:32;;;;;;;36.80;26.77;;;;;;;-144.47;100.00;61586.06;6184593;23;20300;-79
2022/04/21 01:08:02;;;;;;;37.45;26.95;;;;;;;-144.47;100.00;61586.06;6185061;23;20302;-79
2022/04/21 01:10:30;;;;;;;34.97;26.15;;;;;;;-144.47;100.00;61586.06;6158538;23;20032;-80
2022/04/21 01:12:56;;;;;;;32.85;25.58;;;;;;;-144.47;100.00;61586.06;6184608;23;20013;-80
2022/04/21 01:15:22;;;;;;;30.63;25.95;;;;;;;-144.47;100.00;61586.06;6185239;23;20297;-79
2022/04/21 01:17:48;;;;;;;30.02;25.05;;;;;;;-144.47;100.00;61586.06;6185442;23;20005;-78
2022/04/21 01:20:15;;;;;;;33.22;25.52;;;;;;;-144.47;100.00;61586.06;6185536;23;20047;-79
2022/04/21 01:22:41;;;;;;;31.48;24.85;;;;;;;-144.47;100.00;61586.06;6184918;23;20104;-79
2022/04/21 01:25:07;;;;;;;31.75;25.52;;;;;;;-144.47;100.00;61586.06;6185346;23;20132;-80
2022/04/21 01:27:35;;;;;;;30.27;25.13;;;;;;;-144.47;100.00;61586.06;6184499;23;20457;-79
2022/04/21 01:30:02;;;;;;;32.67;25.38;;;;;;;-144.47;100.00;61586.06;6183313;23;20315;-79
2022/04/21 01:32:28;;;;;;;31.13;25.80;;;;;;;-144.47;100.00;61586.06;6184796;23;20016;-79
2022/04/21 01:34:53;;;;;;;31.02;24.55;;;;;;;-144.47;100.00;61586.06;6184947;23;20017;-79
2022/04/21 01:42:48;;;;;;;29.92;25.80;;;;;;;-144.47;100.00;61586.06;6194914;23;20013;-79
2022/04/21 01:45:14;;;;;;;35.65;26.70;;;;;;;-144.47;100.00;61586.06;6187691;23;20019;-79
2022/04/21 01:47:39;;;;;;;36.45;27.35;;;;;;;-144.47;100.00;61586.06;6184160;23;20020;-79
2022/04/21 01:50:07;;;;;;;33.83;26.23;;;;;;;-144.47;100.00;61586.06;6185075;23;20009;-79
2022/04/21 01:52:36;;;;;;;34.65;26.67;;;;;;;-144.47;100.00;61586.06;6184442;23;20013;-79
2022/04/21 01:55:04;;;;;;;31.13;25.27;;;;;;;-144.47;100.00;61586.06;6157923;23;20047;-78
2022/04/21 01:57:29;;;;;;;32.33;25.67;;;;;;;-144.47;100.00;61586.06;6184123;23;20008;-79
2022/04/21 01:59:55;;;;;;;29.65;25.00;;;;;;;-144.47;100.00;61586.06;6185304;23;20450;-79
2022/04/21 02:02:20;;;;;;;29.15;25.10;;;;;;;-144.47;100.00;61586.06;6198127;23;20009;-79
2022/04/21 02:04:46;;;;;;;30.45;25.58;;;;;;;-144.47;100.00;61586.06;6203427;23;20144;-78
2022/04/21 02:07:11;;;;;;;28.77;24.73;;;;;;;-144.47;100.00;61586.06;6187879;23;20009;-79
2022/04/21 02:09:40;;;;;;;31.88;26.25;;;;;;;-144.47;100.00;61586.06;6183970;23;20019;-78
2022/04/21 02:12:06;;;;;;;29.38;25.13;;;;;;;-144.47;100.00;61586.06;6156586;23;20359;-78
2022/04/21 02:14:33;;;;;;;28.90;24.95;;;;;;;-144.47;100.00;61586.06;6157392;23;20021;-79
2022/04/21 02:16:59;;;;;;;33.35;26.92;;;;;;;-144.47;100.00;61586.06;6184278;23;20035;-79
2022/04/21 02:19:25;;;;;;;34.38;25.58;;;;;;;-144.47;100.00;61586.06;6157593;23;20485;-78
2022/04/21 02:21:50;;;;;;;35.35;27.75;;;;;;;-144.47;100.00;61586.06;6133546;23;20009;-78
2022/04/21 02:24:15;;;;;;;36.10;26.00;;;;;;;-144.47;100.00;61586.06;6184112;23;20450;-78
2022/04/21 02:26:41;;;;;;;34.65;27.02;;;;;;;-144.47;100.00;61586.06;6183718;23;20005;-78
2022/04/21 02:29:06;;;;;;;31.38;25.67;;;;;;;-144.47;100.00;61586.06;6184310;23;20009;-78
2022/04/21 02:31:32;;;;;;;37.75;26.80;;;;;;;-144.47;100.00;61586.06;6191273;23;20011;-78
2022/04/21 02:33:57;;;;;;;33.25;27.48;;;;;;;-144.47;100.00;61586.06;6207687;23;20036;-78
2022/04/21 02:36:23;;;;;;;34.97;27.40;;;;;;;-144.47;100.00;61586.06;6173498;23;20044;-79
2022/04/21 02:38:48;;;;;;;33.75;27.52;;;;;;;-144.47;100.00;61586.06;6185700;23;20013;-78
2022/04/21 02:41:15;;;;;;;30.90;26.77;;;;;;;-144.47;100.00;61586.06;6185214;23;20020;-79
2022/04/21 02:43:40;;;;;;;33.95;26.98;;;;;;;-144.47;100.00;61586.06;6183348;23;20084;-78
2022/04/21 02:46:05;;;;;;;34.88;27.92;;;;;;;-144.47;100.00;61586.06;6157746;23;20085;-78
2022/04/21 02:48:31;;;;;;;36.65;28.85;;;;;;;-144.47;100.00;61586.06;6183583;23;20013;-78
2022/04/21 02:50:57;;;;;;;33.15;27.55;;;;;;;-144.47;100.00;61586.06;6184165;23;20013;-78
2022/04/21 02:57:19;;;;;;;35.20;26.73;;;;;;;-144.47;100.00;61586.06;6183237;23;20330;-77
2022/04/21 02:58:52;;;;;;;39.08;28.83;;;;;;;-144.47;100.00;61586.06;6183556;23;20009;-80
2022/04/21 03:01:17;;;;;;;38.28;28.05;;;;;;;-144.47;100.00;61586.06;6183605;23;20051;-79
2022/04/21 03:03:42;;;;;;;36.60;28.02;;;;;;;-144.47;100.00;61586.06;6183766;23;20013;-79
2022/04/21 03:06:12;;;;;;;33.00;27.40;;;;;;;-144.47;100.00;61586.06;6183218;23;20017;-80
2022/04/21 03:08:37;;;;;;;34.15;27.83;;;;;;;-144.47;100.00;61586.06;6183650;23;20085;-80
2022/04/21 03:11:03;;;;;;;36.75;29.17;;;;;;;-144.47;100.00;61586.06;6183914;23;20028;-78
2022/04/21 03:13:28;;;;;;;38.95;29.42;;;;;;;-144.47;100.00;61586.06;6182524;23;20020;-78
2022/04/21 03:15:53;;;;;;;26.23;22.17;;;;;;;-144.47;100.00;61586.06;6187816;23;20266;-79
2022/04/21 03:18:19;;;;;;;23.00;19.10;;;;;;;-144.47;100.00;61586.06;6177765;23;20013;-78
2022/04/21 03:26:17;;;;;;;21.92;17.48;;;;;;;-144.47;100.00;61586.06;6183115;23;20381;-79
2022/04/21 03:28:43;;;;;;;21.55;15.43;;;;;;;-144.47;100.00;61586.06;6182645;23;20013;-79
2022/04/21 03:31:09;;;;;;;17.27;14.75;;;;;;;-144.47;100.00;61586.06;6183549;23;20070;-80
2022/04/21 03:33:34;;;;;;;25.25;19.40;;;;;;;-144.47;100.00;61586.06;6183240;23;20037;-78
2022/04/21 03:36:00;;;;;;;25.13;21.30;;;;;;;-144.47;100.00;61586.06;6183671;23;20013;-80
2022/04/21 03:42:46;;;;;;;33.58;27.40;;;;;;;-144.47;100.00;61586.06;6181418;23;20064;-80
2022/04/21 03:45:40;;;;;;;31.42;25.05;;;;;;;-144.47;100.00;61586.06;6183329;23;20043;-77
2022/04/21 03:48:13;;;;;;;23.67;20.30;;;;;;;-144.47;100.00;61586.06;6156345;23;20017;-78
2022/04/21 03:51:36;;;;;;;19.77;17.45;;;;;;;-144.47;100.00;61586.06;6163095;23;20052;-78
2022/04/21 03:54:02;;;;;;;21.77;16.15;;;;;;;-144.47;100.00;61586.06;6092260;23;20018;-79
2022/04/21 03:56:27;;;;;;;18.08;14.65;;;;;;;-144.47;100.00;61586.06;6091026;23;20018;-78
2022/04/21 03:58:54;;;;;;;15.00;12.82;;;;;;;-144.47;100.00;61586.06;6067967;23;20428;-77
2022/04/21 04:01:20;;;;;;;14.82;10.90;;;;;;;-144.47;100.00;61586.06;6125586;23;20021;-78
2022/04/21 04:03:46;;;;;;;9.40;8.55;;;;;;;-144.47;100.00;61586.06;6182686;23;20013;-78
2022/04/21 04:12:19;;;;;;;16.23;9.02;;;;;;;-144.47;100.00;61586.06;6157598;23;20060;-78
2022/04/21 04:14:45;;;;;;;13.60;8.43;;;;;;;-144.47;100.00;61586.06;6156596;23;20035;-79
2022/04/21 04:17:10;;;;;;;9.60;8.68;;;;;;;-144.47;100.00;61586.06;6183167;23;20080;-79
2022/04/21 04:19:36;;;;;;;9.07;8.13;;;;;;;-144.47;100.00;61586.06;6131870;23;20024;-80
2022/04/21 04:22:02;;;;;;;8.48;7.65;;;;;;;-144.47;100.00;61586.06;6183150;23;20048;-80
2022/04/21 04:24:28;;;;;;;13.05;8.35;;;;;;;-144.47;100.00;61586.06;6182941;23;20005;-79
2022/04/21 04:26:54;;;;;;;12.25;8.65;;;;;;;-144.47;100.00;61586.06;6183232;23;20013;-79
2022/04/21 04:29:22;;;;;;;13.75;8.50;;;;;;;-144.47;100.00;61586.06;6155933;23;20080;-78
2022/04/21 04:31:57;;;;;;;12.07;9.50;;;;;;;-144.47;100.00;61586.06;6183408;23;20016;-78
2022/04/21 04:34:23;;;;;;;12.35;9.55;;;;;;;-144.47;100.00;61586.06;6183479;23;20009;-78
2022/04/21 04:36:48;;;;;;;14.75;10.07;;;;;;;-144.47;100.00;61586.06;6184665;23;20008;-80
2022/04/21 04:39:15;;;;;;;14.50;10.70;;;;;;;-144.47;100.00;61586.06;6186411;23;20040;-79
2022/04/21 04:44:27;;;;;;;13.70;11.40;;;;;;;-144.47;100.00;61586.06;6188367;23;20020;-78
2022/04/21 04:46:52;;;;;;;13.32;10.30;;;;;;;-144.47;100.00;61586.06;6185195;23;20020;-79
2022/04/21 04:49:18;;;;;;;15.45;11.25;;;;;;;-144.47;100.00;61586.06;6131970;23;20009;-79
2022/04/21 04:51:43;;;;;;;13.73;11.57;;;;;;;-144.47;100.00;61586.06;6182985;23;20024;-78
2022/04/21 04:54:12;;;;;;;13.57;11.30;;;;;;;-144.47;100.00;61586.06;6156328;23;20024;-78
2022/04/21 04:56:38;;;;;;;12.07;10.88;;;;;;;-144.47;100.00;61586.06;6182585;23;20067;-78
2022/04/21 04:59:04;;;;;;;13.05;10.50;;;;;;;-144.47;100.00;61586.06;6183042;23;20084;-80
2022/04/21 05:01:30;;;;;;;13.68;10.30;;;;;;;-144.47;100.00;61586.06;6183265;23;20021;-79
2022/04/21 05:04:07;;;;;;;12.18;10.77;;;;;;;-144.47;100.00;61586.06;6157208;23;20028;-79
2022/04/21 05:06:49;;;;;;;17.35;11.13;;;;;;;-144.47;100.00;61586.06;6183519;23;20092;-81
2022/04/21 05:09:21;;;;;;;11.77;10.02;;;;;;;-144.47;100.00;61586.06;6156160;23;20009;-80
2022/04/21 05:11:51;;;;;;;13.93;10.43;;;;;;;-144.47;100.00;61586.06;6182865;23;20104;-80
2022/04/21 05:14:17;;;;;;;13.45;10.45;;;;;;;-144.47;100.00;61586.06;6183299;23;20016;-80
2022/04/21 05:16:43;;;;;;;12.40;10.60;;;;;;;-144.47;100.00;61586.06;6181870;23;20017;-80
2022/04/21 05:19:10;;;;;;;13.07;11.30;;;;;;;-144.47;100.00;61586.06;6182666;23;20005;-80
2022/04/21 05:21:37;;;;;;;14.40;11.63;;;;;;;-144.47;100.00;61586.06;6183077;23;20013;-81
2022/04/21 05:24:04;;;;;;;16.40;12.60;;;;;;;-144.47;100.00;61586.06;6156605;23;20157;-82
2022/04/21 05:26:31;;;;;;;15.88;12.50;;;;;;;-144.47;100.00;61586.06;6182201;23;20060;-83
2022/04/21 05:28:58;;;;;;;17.00;14.50;;;;;;;-144.47;100.00;61586.06;6157344;23;20041;-83
2022/04/21 05:31:26;;;;;;;16.50;14.18;;;;;;;-144.47;100.00;61586.06;6183182;23;20028;-89
2022/04/21 05:33:52;;;;;;;21.05;13.68;;;;;;;-144.47;100.00;61586.06;6157395;23;20012;-83
2022/04/21 05:36:18;;;;;;;14.43;12.90;;;;;;;-144.47;100.00;61586.06;6182821;23;20021;-83
2022/04/21 05:38:46;;;;;;;14.52;12.55;;;;;;;-144.47;100.00;61586.06;6182598;23;20488;-83
2022/04/21 05:41:14;;;;;;;15.38;12.15;;;;;;;-144.47;100.00;61586.06;6183428;23;20338;-86
2022/04/21 05:43:44;;;;;;;13.30;10.95;;;;;;;-144.47;100.00;61586.06;6156750;23;20212;-85
2022/04/21 05:46:14;;;;;;;12.13;10.90;;;;;;;-144.47;100.00;61586.06;6183588;23;20043;-85
2022/04/21 05:48:41;;;;;;;11.45;9.88;;;;;;;-144.47;100.00;61586.06;6181939;23;20016;-84
2022/04/21 05:51:10;;;;;;;13.00;9.60;;;;;;;-144.47;100.00;61586.06;6183340;23;20013;-83
2022/04/21 05:53:47;;;;;;;10.38;9.48;;;;;;;-144.47;100.00;61586.06;6157020;23;20047;-84
2022/04/21 05:56:13;;;;;;;11.73;9.65;;;;;;;-144.47;100.00;61586.06;6159747;23;20378;-86
2022/04/21 05:58:39;;;;;;;11.23;10.23;;;;;;;-144.47;100.00;61586.06;6207433;23;20001;-87
2022/04/21 06:01:09;;;;;;;12.63;9.38;;;;;;;-144.47;100.00;61586.06;6209061;23;20052;-86
2022/04/21 06:03:35;;;;;;;10.50;9.18;;;;;;;-144.47;100.00;61586.06;6207813;23;20016;-86
2022/04/21 06:06:01;;;;;;;13.07;10.40;;;;;;;-144.47;100.00;61586.06;6211057;23;20017;-88
2022/04/21 06:08:27;;;;;;;11.63;9.60;;;;;;;-144.47;100.00;61586.06;6209218;23;20028;-84
2022/04/21 06:10:52;;;;;;;11.02;9.93;;;;;;;-144.47;100.00;61586.06;6205057;23;20017;-86
2022/04/21 06:13:18;;;;;;;11.10;9.43;;;;;;;-144.47;100.00;61586.06;6204151;23;20020;-88
2022/04/21 06:15:44;;;;;;;11.13;10.02;;;;;;;-144.47;100.00;61586.06;6199010;23;20032;-87
2022/04/21 06:18:09;;;;;;;11.13;9.70;;;;;;;-144.47;100.00;61586.06;6192992;23;20013;-87
2022/04/21 06:20:35;;;;;;;10.73;8.88;;;;;;;-144.47;100.00;61586.06;6184259;23;20020;-87
2022/04/21 06:23:01;;;;;;;14.40;9.43;;;;;;;-144.47;100.00;61586.06;6185248;23;20152;-87
2022/04/21 06:25:27;;;;;;;11.30;8.80;;;;;;;-144.47;100.00;61586.06;6184378;23;20009;-88
2022/04/21 06:27:52;;;;;;;10.45;9.43;;;;;;;-144.47;100.00;61586.06;6189347;23;20035;-86
2022/04/21 06:30:23;;;;;;;11.57;8.82;;;;;;;-144.47;100.00;61586.06;6201225;23;20008;-86
2022/04/21 06:32:49;;;;;;;15.27;8.80;;;;;;;-144.47;100.00;61586.06;6199306;23;20016;-86
2022/04/21 06:35:15;;;;;;;10.55;8.80;;;;;;;-144.47;100.00;61586.06;6200965;23;20009;-87
2022/04/21 06:37:42;;;;;;;10.23;8.82;;;;;;;-144.47;100.00;61586.06;6147549;23;20028;-87
2022/04/21 06:40:08;;;;;;;9.55;8.40;;;;;;;-144.47;100.00;61586.06;6166766;23;19997;-86
2022/04/21 06:42:35;;;;;;;9.70;8.70;;;;;;;-144.47;100.00;61586.06;6189085;23;20024;-87
2022/04/21 06:48:02;;;;;;;10.07;8.05;;;;;;;-144.47;100.00;61586.06;6187392;23;20008;-88
2022/04/21 06:50:38;;;;;;;11.77;8.93;;;;;;;-144.47;100.00;61586.06;6186015;23;20373;-87
2022/04/21 06:53:06;;;;;;;9.40;7.63;;;;;;;-144.47;100.00;61586.06;6186027;23;20123;-88
2022/04/21 06:55:33;;;;;;;8.70;7.88;;;;;;;-144.47;100.00;61586.06;6183826;23;20009;-87
2022/04/21 06:57:58;;;;;;;9.98;8.07;;;;;;;-144.47;100.00;61586.06;6158814;23;20084;-88
2022/04/21 07:00:26;;;;;;;9.68;8.23;;;;;;;-144.47;100.00;61586.06;6183664;23;20421;-86
2022/04/21 07:02:57;;;;;;;9.55;8.35;;;;;;;-144.47;100.00;61586.06;6184856;23;20024;-87
2022/04/21 07:05:26;;;;;;;11.07;7.85;;;;;;;-144.47;100.00;61586.06;6182883;23;20033;-83
2022/04/21 07:07:52;;;;;;;9.70;7.88;;;;;;;-144.47;100.00;61586.06;6183031;23;20016;-82
2022/04/21 07:10:21;;;;;;;9.45;7.55;;;;;;;-144.47;100.00;61586.06;6182855;23;20028;-82
2022/04/21 07:12:47;;;;;;;8.68;7.82;;;;;;;-144.47;100.00;61586.06;6183611;23;20009;-82
2022/04/21 07:15:14;;;;;;;8.07;7.25;;;;;;;-144.47;100.00;61586.06;6157233;23;20017;-82
2022/04/21 07:17:40;;;;;;;11.05;7.65;;;;;;;-144.47;100.00;61586.06;6183079;23;20089;-83
2022/04/21 07:20:07;;;;;;;8.13;7.30;;;;;;;-144.47;100.00;61586.06;6183441;23;20489;-83
2022/04/21 07:22:33;;;;;;;7.95;6.85;;;;;;;-144.47;100.00;61586.06;6182428;23;20020;-83
2022/04/21 07:25:01;;;;;;;8.68;7.93;;;;;;;-144.47;100.00;61586.06;6183099;23;20458;-84
2022/04/21 07:27:27;;;;;;;9.77;7.15;;;;;;;-144.47;100.00;61586.06;6156510;23;20391;-82
2022/04/21 07:29:53;;;;;;;8.38;7.10;;;;;;;-144.47;100.00;61586.06;6183785;23;20326;-84
2022/04/21 07:32:19;;;;;;;10.38;7.25;;;;;;;-144.47;100.00;61586.06;6184094;23;20016;-83
2022/04/21 07:34:44;;;;;;;8.13;7.05;;;;;;;-144.47;100.00;61586.06;6183195;23;20040;-84
2022/04/21 07:37:10;;;;;;;8.43;6.78;;;;;;;-144.47;100.00;61586.06;6156968;23;20501;-83
2022/04/21 07:39:38;;;;;;;10.05;6.80;;;;;;;-144.47;100.00;61586.06;6182919;23;20131;-83
2022/04/21 07:42:05;;;;;;;9.35;7.10;;;;;;;-144.47;100.00;61586.06;6183453;23;20001;-83
2022/04/21 07:44:34;;;;;;;8.07;6.45;;;;;;;-144.47;100.00;61586.06;6182625;23;20063;-80
2022/04/21 07:46:59;;;;;;;11.57;7.40;;;;;;;-144.47;100.00;61586.06;6182910;23;20446;-83
2022/04/21 07:54:53;;;;;;;9.70;7.53;;;;;;;-144.47;100.00;61586.06;6183155;23;20043;-84
2022/04/21 07:57:18;;;;;;;8.57;7.32;;;;;;;-144.47;100.00;61586.06;6182856;23;20387;-84
2022/04/21 07:59:45;;;;;;;8.82;6.90;;;;;;;-144.47;100.00;61586.06;6156967;23;20075;-84
2022/04/21 08:02:11;;;;;;;7.90;7.03;;;;;;;-144.47;100.00;61586.06;6183682;23;20009;-84
2022/04/21 08:04:38;;;;;;;7.88;7.15;;;;;;;-144.47;100.00;61586.06;6182922;23;20021;-82
2022/04/21 08:07:04;;;;;;;8.07;7.03;;;;;;;-144.47;100.00;61586.06;6156514;23;20087;-86
2022/04/21 08:09:30;;;;;;;8.90;7.00;;;;;;;-144.47;100.00;61586.06;6130399;23;20013;-81
2022/04/21 08:11:56;;;;;;;7.35;6.63;;;;;;;-144.47;100.00;61586.06;6181975;23;20389;-82
2022/04/21 08:14:22;;;;;;;9.30;6.90;;;;;;;-144.47;100.00;61586.06;6183071;23;20099;-82
2022/04/21 08:16:48;;;;;;;12.02;6.97;;;;;;;-144.47;100.00;61586.06;6182294;23;20009;-83
2022/04/21 08:19:14;;;;;;;9.52;6.63;;;;;;;-144.47;100.00;61586.06;6189246;23;20063;-81
2022/04/21 08:21:39;;;;;;;7.28;6.40;;;;;;;-144.47;100.00;61586.06;6182591;23;20013;-81
2022/04/21 08:32:33;;;;;;;12.90;8.13;;;;;;;-144.47;100.00;61586.06;6196976;23;20022;-84
2022/04/21 08:35:00;;;;;;;7.30;6.50;;;;;;;-144.47;100.00;61586.06;6197509;23;20011;-83
2022/04/21 08:37:25;;;;;;;7.93;6.25;;;;;;;-144.47;100.00;61586.06;6197207;23;20028;-83
2022/04/21 08:39:51;;;;;;;8.20;7.07;;;;;;;-144.47;100.00;61586.06;6185947;23;20501;-80
2022/04/21 08:42:18;;;;;;;8.68;6.47;;;;;;;-144.47;100.00;61586.06;6180566;23;20009;-83
2022/04/21 08:44:44;;;;;;;6.40;5.85;;;;;;;-144.47;100.00;61586.06;6181225;23;20017;-84
2022/04/21 08:47:11;;;;;;;8.05;6.05;;;;;;;-144.47;100.00;61586.06;6181031;23;20009;-84
2022/04/21 08:49:39;;;;;;;9.00;6.07;;;;;;;-144.47;100.00;61586.06;6180873;23;20067;-83
2022/04/21 08:52:05;;;;;;;8.88;6.63;;;;;;;-144.47;100.00;61586.06;6181659;23;20014;-80
2022/04/21 08:54:31;;;;;;;8.63;6.53;;;;;;;-144.47;100.00;61586.06;6180668;23;20360;-84
2022/04/21 08:56:57;;;;;;;6.28;5.72;;;;;;;-144.47;100.00;61586.06;6183177;23;20333;-82
2022/04/21 08:59:23;;;;;;;9.15;6.30;;;;;;;-144.47;100.00;61586.06;6182643;23;20001;-84
2022/04/21 09:01:49;;;;;;;10.00;6.38;;;;;;;-144.47;100.00;61586.06;6152748;23;20346;-83
2022/04/21 09:04:14;;;;;;;10.30;6.47;;;;;;;-144.47;100.00;61586.06;6152738;23;20018;-83
2022/04/21 09:06:40;;;;;;;10.43;5.90;;;;;;;-144.47;100.00;61586.06;6153391;23;20052;-82
2022/04/21 09:09:34;;;;;;;11.68;6.45;;;;;;;-144.47;100.00;61586.06;6152897;23;20079;-83
2022/04/21 09:12:00;;;;;;;10.75;6.18;;;;;;;-144.47;100.00;61586.06;6153628;23;20020;-83
2022/04/21 09:14:25;;;;;;;11.43;5.78;;;;;;;-144.47;100.00;61586.06;6127952;23;20065;-84
2022/04/21 09:16:51;;;;;;;8.80;5.93;;;;;;;-144.47;100.00;61586.06;6153226;23;20367;-81
2022/04/21 09:19:16;;;;;;;10.93;6.25;;;;;;;-144.47;100.00;61586.06;6153514;23;20486;-83
2022/04/21 09:21:42;;;;;;;8.30;6.28;;;;;;;-144.47;100.00;61586.06;6152987;23;20010;-83
2022/04/21 09:24:27;;;;;;;9.07;5.80;;;;;;;-144.47;100.00;61586.06;6155982;23;20056;-83
2022/04/21 09:26:55;;;;;;;6.28;5.03;;;;;;;-144.47;100.00;61586.06;6155325;23;20075;-78
2022/04/21 09:29:30;;;;;;;6.88;5.30;;;;;;;-144.47;100.00;61586.06;6153608;23;20013;-79
2022/04/21 09:32:05;;;;;;;6.72;4.90;;;;;;;-144.47;100.00;61586.06;6155035;23;20017;-80
2022/04/21 09:34:30;;;;;;;7.85;5.25;;;;;;;-144.47;100.00;61586.06;6156924;23;20010;-81
2022/04/21 09:36:56;;;;;;;7.55;5.75;;;;;;;-144.47;100.00;61586.06;6181703;23;19997;-81
2022/04/21 09:39:22;;;;;;;6.43;4.80;;;;;;;-144.47;100.00;61586.06;6180092;23;20012;-81
2022/04/21 09:41:53;;;;;;;5.15;4.63;;;;;;;-144.47;100.00;61586.06;6158348;23;20116;-86
2022/04/21 09:47:07;;;;;;;8.20;5.22;;;;;;;-144.47;100.00;61586.06;6153071;23;20020;-82
2022/04/21 09:49:44;;;;;;;5.55;4.93;;;;;;;-144.47;100.00;61586.06;6154117;23;20009;-81
2022/04/21 09:52:09;;;;;;;7.35;4.90;;;;;;;-144.47;100.00;61586.06;6154955;23;20040;-83
2022/04/21 09:54:36;;;;;;;5.93;4.80;;;;;;;-144.47;100.00;61586.06;6153845;23;20005;-84
2022/04/21 09:57:04;;;;;;;9.35;5.88;;;;;;;-144.47;100.00;61586.06;6153649;23;20022;-85
2022/04/21 09:59:35;;;;;;;7.82;5.57;;;;;;;-144.47;100.00;61586.06;6153665;23;20009;-82
2022/04/21 10:02:02;;;;;;;7.25;5.43;;;;;;;-144.47;100.00;61586.06;6154540;23;20013;-80
2022/04/21 10:04:29;;;;;;;6.07;5.47;;;;;;;-144.47;100.00;61586.06;6164562;23;20013;-84
2022/04/21 10:06:57;;;;;;;9.77;5.80;;;;;;;-144.47;100.00;61586.06;6181566;23;20005;-86
2022/04/21 10:09:24;;;;;;;6.80;5.00;;;;;;;-144.47;100.00;61586.06;6170566;23;20010;-85
2022/04/21 10:11:52;;;;;;;8.15;5.07;;;;;;;-144.47;100.00;61586.06;6155808;23;20084;-83
2022/04/21 10:21:49;;;;;;;11.65;6.20;;;;;;;-144.47;100.00;61586.06;6151644;23;20044;-79
2022/04/21 10:24:24;;;;;;;10.68;5.40;;;;;;;-144.47;100.00;61586.06;6153537;23;20013;-86
2022/04/21 10:26:50;;;;;;;11.75;5.55;;;;;;;-144.47;100.00;61586.06;6153787;23;20009;-79
2022/04/21 10:29:23;;;;;;;6.75;5.47;;;;;;;-144.47;100.00;61586.06;6154344;23;20101;-79
2022/04/21 10:31:57;;;;;;;8.43;5.35;;;;;;;-144.47;100.00;61586.06;6153722;23;20430;-83
2022/04/21 10:34:44;;;;;;;7.45;5.40;;;;;;;-144.47;100.00;61586.06;6152636;23;20010;-86
2022/04/21 10:37:10;;;;;;;6.68;5.15;;;;;;;-144.47;100.00;61586.06;6155950;23;20013;-83
2022/04/21 10:39:36;;;;;;;9.95;4.85;;;;;;;-144.47;100.00;61586.06;6154309;23;20340;-83
2022/04/21 10:42:14;;;;;;;8.45;4.70;;;;;;;-144.47;100.00;61586.06;6154473;23;20013;-82
2022/04/21 10:44:50;;;;;;;11.35;5.85;;;;;;;-144.47;100.00;61586.06;6154325;23;20044;-83
2022/04/21 10:47:35;;;;;;;9.40;4.70;;;;;;;-144.47;100.00;61586.06;6155976;23;20029;-82
2022/04/21 10:50:15;;;;;;;7.40;5.03;;;;;;;-144.47;100.00;61586.06;6154142;23;20010;-83
2022/04/21 10:58:50;;;;;;;5.10;4.68;;;;;;;-144.47;100.00;61586.06;6177731;23;20423;-83
2022/04/21 11:01:19;;;;;;;6.03;5.40;;;;;;;-144.47;100.00;61586.06;6152103;23;20415;-85
2022/04/21 11:04:07;;;;;;;11.50;5.20;;;;;;;-144.47;100.00;61586.06;6153989;23;20033;-85
2022/04/21 11:06:39;;;;;;;7.22;4.82;;;;;;;-144.47;100.00;61586.06;6154440;23;20021;-83
2022/04/21 11:09:05;;;;;;;8.80;5.25;;;;;;;-144.47;100.00;61586.06;6154909;23;20021;-85
2022/04/21 11:14:36;;;;;;;6.57;4.90;;;;;;;-144.47;100.00;61586.06;6156885;23;20088;-83
2022/04/21 11:17:36;;;;;;;7.40;5.38;;;;;;;-144.47;100.00;61586.06;6130569;23;20017;-83
2022/04/21 11:20:32;;;;;;;6.80;4.75;;;;;;;-144.47;100.00;61586.06;6124493;23;20072;-83
2022/04/21 11:23:38;;;;;;;6.30;4.63;;;;;;;-144.47;100.00;61586.06;6159011;23;20080;-82
2022/04/21 11:26:46;;;;;;;7.80;4.90;;;;;;;-144.47;100.00;61586.06;6162572;23;20037;-83
2022/04/21 11:29:20;;;;;;;5.90;4.50;;;;;;;-144.47;100.00;61586.06;6160222;23;20072;-83
2022/04/21 11:32:35;;;;;;;7.07;4.53;;;;;;;-144.47;100.00;61586.06;6160429;23;20014;-80
2022/04/21 11:35:16;;;;;;;8.48;4.95;;;;;;;-144.47;100.00;61586.06;6151007;23;20088;-85
2022/04/21 11:37:58;;;;;;;;;;;;;;;-144.47;100.00;61586.06;6152550;23;20041;-83
2022/04/21 11:40:31;;;;;;;4.25;3.80;;;;;;;-144.47;100.00;61586.06;6152466;23;19912;-83
2022/04/21 11:43:03;;;;;;;4.30;3.90;;;;;;;-144.47;100.00;61586.06;6153893;23;20044;-87
2022/04/21 11:45:36;;;;;;;7.07;4.13;;;;;;;-144.47;100.00;61586.06;6164653;23;20227;-82
2022/04/21 11:48:10;;;;;;;4.35;3.75;;;;;;;-144.47;100.00;61586.06;6169615;23;20017;-82
2022/04/21 11:50:35;;;;;;;9.02;4.78;;;;;;;-144.47;100.00;61586.06;6153191;23;20494;-84
2022/04/21 11:53:11;;;;;;;6.25;4.45;;;;;;;-144.47;100.00;61586.06;6151516;23;20009;-79
2022/04/21 11:55:36;;;;;;;7.65;4.50;;;;;;;-144.47;100.00;61586.06;6147834;23;20071;-76
2022/04/21 11:58:02;;;;;;;5.25;4.45;;;;;;;-144.47;100.00;61586.06;6148764;23;20435;-80
2022/04/21 12:08:44;;;;;;;5.32;3.80;;;;;;;-144.47;100.00;61586.06;6150256;23;20013;-78
2022/04/21 12:11:13;;;;;;;5.93;3.60;;;;;;;-144.47;100.00;61586.06;6151185;23;20505;-79
2022/04/21 12:13:38;;;;;;;6.78;3.67;;;;;;;-144.47;100.00;61586.06;6141547;23;20013;-78
2022/04/21 12:16:04;;;;;;;6.38;3.72;;;;;;;-144.47;100.00;61586.06;6152103;23;20016;-78
2022/04/21 12:18:48;;;;;;;7.93;4.28;;;;;;;-144.47;100.00;61586.06;6150697;23;20088;-79
2022/04/21 12:21:14;;;;;;;5.55;3.70;;;;;;;-144.47;100.00;61586.06;6152208;23;20430;-77
2022/04/21 12:23:39;;;;;;;4.30;3.90;;;;;;;-144.47;100.00;61586.06;6153932;23;20017;-78